sensor_id;sensor_type;location;lat;lon;timestamp;pressure;altitude;pressure_sealevel;temperature;humidity
75855;BME280;64502;59.976;30.316;2023-06-10T00:01:32;102429.81;;;8.95;51.90
75855;BME280;64502;59.976;30.316;2023-06-10T00:03:59;102432.47;;;8.95;51.02
75855;BME280;64502;59.976;30.316;2023-06-10T00:06:24;102438.63;;;8.94;51.88
75855;BME280;64502;59.976;30.316;2023-06-10T00:08:51;102435.16;;;8.93;51.69
75855;BME280;64502;59.976;30.316;2023-06-10T00:11:16;102436.00;;;8.94;51.70
75855;BME280;64502;59.976;30.316;2023-06-10T00:13:42;102437.78;;;8.93;51.64
75855;BME280;64502;59.976;30.316;2023-06-10T00:16:08;102441.31;;;8.92;52.10
75855;BME280;64502;59.976;30.316;2023-06-10T00:18:33;102438.69;;;8.92;52.18
75855;BME280;64502;59.976;30.316;2023-06-10T00:21:02;102437.84;;;8.90;52.96
75855;BME280;64502;59.976;30.316;2023-06-10T00:23:32;102437.88;;;8.88;52.64
75855;BME280;64502;59.976;30.316;2023-06-10T00:26:03;102442.28;;;8.88;51.95
75855;BME280;64502;59.976;30.316;2023-06-10T00:28:29;102446.69;;;8.87;52.60
75855;BME280;64502;59.976;30.316;2023-06-10T00:30:55;102449.34;;;8.86;52.77
75855;BME280;64502;59.976;30.316;2023-06-10T00:33:21;102451.97;;;8.86;52.86
75855;BME280;64502;59.976;30.316;2023-06-10T00:35:46;102453.81;;;8.84;52.93
75855;BME280;64502;59.976;30.316;2023-06-10T00:38:13;102466.06;;;8.83;53.22
75855;BME280;64502;59.976;30.316;2023-06-10T00:40:40;102467.91;;;8.81;53.66
75855;BME280;64502;59.976;30.316;2023-06-10T00:43:09;102461.81;;;8.78;53.98
75855;BME280;64502;59.976;30.316;2023-06-10T00:45:34;102465.38;;;8.75;53.55
75855;BME280;64502;59.976;30.316;2023-06-10T00:48:01;102462.81;;;8.72;53.66
75855;BME280;64502;59.976;30.316;2023-06-10T00:50:27;102473.41;;;8.71;54.10
75855;BME280;64502;59.976;30.316;2023-06-10T00:52:53;102480.41;;;8.70;54.15
75855;BME280;64502;59.976;30.316;2023-06-10T00:55:20;102469.94;;;8.67;54.02
75855;BME280;64502;59.976;30.316;2023-06-10T00:57:46;102477.88;;;8.65;54.00
75855;BME280;64502;59.976;30.316;2023-06-10T01:00:14;102473.50;;;8.64;54.58
75855;BME280;64502;59.976;30.316;2023-06-10T01:02:41;102483.19;;;8.64;54.63
75855;BME280;64502;59.976;30.316;2023-06-10T01:05:08;102481.44;;;8.63;54.53
75855;BME280;64502;59.976;30.316;2023-06-10T01:07:38;102487.59;;;8.62;54.47
75855;BME280;64502;59.976;30.316;2023-06-10T01:10:11;102487.66;;;8.60;54.45
75855;BME280;64502;59.976;30.316;2023-06-10T01:13:07;102494.63;;;8.61;53.21
75855;BME280;64502;59.976;30.316;2023-06-10T01:15:37;102490.28;;;8.59;54.65
75855;BME280;64502;59.976;30.316;2023-06-10T01:18:07;102495.56;;;8.59;54.64
75855;BME280;64502;59.976;30.316;2023-06-10T01:20:41;102496.47;;;8.58;55.16
75855;BME280;64502;59.976;30.316;2023-06-10T01:23:10;102493.84;;;8.58;54.50
75855;BME280;64502;59.976;30.316;2023-06-10T01:25:41;102498.19;;;8.59;54.89
75855;BME280;64502;59.976;30.316;2023-06-10T01:31:23;102499.88;;;8.63;54.56
75855;BME280;64502;59.976;30.316;2023-06-10T01:33:59;102501.66;;;8.62;55.20
75855;BME280;64502;59.976;30.316;2023-06-10T01:36:26;102496.38;;;8.62;55.39
75855;BME280;64502;59.976;30.316;2023-06-10T01:38:53;102498.09;;;8.63;54.72
75855;BME280;64502;59.976;30.316;2023-06-10T01:41:19;102506.84;;;8.64;54.46
75855;BME280;64502;59.976;30.316;2023-06-10T01:43:47;102508.56;;;8.66;55.37
75855;BME280;64502;59.976;30.316;2023-06-10T01:46:13;102499.78;;;8.68;55.70
75855;BME280;64502;59.976;30.316;2023-06-10T01:48:40;102508.50;;;8.70;56.40
75855;BME280;64502;59.976;30.316;2023-06-10T01:51:06;102509.34;;;8.70;55.19
75855;BME280;64502;59.976;30.316;2023-06-10T01:53:32;102514.66;;;8.69;55.73
75855;BME280;64502;59.976;30.316;2023-06-10T01:55:57;102509.34;;;8.70;55.29
75855;BME280;64502;59.976;30.316;2023-06-10T01:58:22;102529.53;;;8.71;55.95
75855;BME280;64502;59.976;30.316;2023-06-10T02:00:48;102523.34;;;8.72;56.45
75855;BME280;64502;59.976;30.316;2023-06-10T02:03:13;102524.25;;;8.71;55.67
75855;BME280;64502;59.976;30.316;2023-06-10T02:05:39;102534.75;;;8.73;56.13
75855;BME280;64502;59.976;30.316;2023-06-10T02:08:05;102536.44;;;8.75;56.80
75855;BME280;64502;59.976;30.316;2023-06-10T02:10:30;102534.66;;;8.77;55.69
75855;BME280;64502;59.976;30.316;2023-06-10T02:12:56;102539.91;;;8.79;56.34
75855;BME280;64502;59.976;30.316;2023-06-10T02:15:21;102537.22;;;8.80;56.25
75855;BME280;64502;59.976;30.316;2023-06-10T02:17:47;102535.41;;;8.84;56.67
75855;BME280;64502;59.976;30.316;2023-06-10T02:20:14;102540.63;;;8.85;56.17
75855;BME280;64502;59.976;30.316;2023-06-10T02:22:40;102542.34;;;8.86;56.67
75855;BME280;64502;59.976;30.316;2023-06-10T02:25:05;102546.72;;;8.87;56.46
75855;BME280;64502;59.976;30.316;2023-06-10T02:27:31;102549.28;;;8.89;56.66
75855;BME280;64502;59.976;30.316;2023-06-10T02:29:57;102540.47;;;8.92;56.68
75855;BME280;64502;59.976;30.316;2023-06-10T02:32:23;102558.03;;;8.91;56.75
75855;BME280;64502;59.976;30.316;2023-06-10T02:34:49;102553.63;;;8.93;56.60
75855;BME280;64502;59.976;30.316;2023-06-10T02:37:15;102560.53;;;8.97;56.19
75855;BME280;64502;59.976;30.316;2023-06-10T02:39:41;102560.44;;;9.02;57.01
75855;BME280;64502;59.976;30.316;2023-06-10T02:42:06;102557.72;;;9.05;57.01
75855;BME280;64502;59.976;30.316;2023-06-10T02:44:32;102555.09;;;9.06;57.06
75855;BME280;64502;59.976;30.316;2023-06-10T02:46:58;102564.69;;;9.09;56.66
75855;BME280;64502;59.976;30.316;2023-06-10T02:49:23;102569.03;;;9.10;56.31
75855;BME280;64502;59.976;30.316;2023-06-10T02:51:51;102563.75;;;9.11;56.75
75855;BME280;64502;59.976;30.316;2023-06-10T02:54:22;102574.22;;;9.15;56.60
75855;BME280;64502;59.976;30.316;2023-06-10T02:56:48;102575.91;;;9.17;56.97
75855;BME280;64502;59.976;30.316;2023-06-10T02:59:14;102582.81;;;9.21;57.16
75855;BME280;64502;59.976;30.316;2023-06-10T03:01:40;102594.19;;;9.23;57.01
75855;BME280;64502;59.976;30.316;2023-06-10T03:04:06;102593.28;;;9.24;56.83
75855;BME280;64502;59.976;30.316;2023-06-10T03:06:31;102593.28;;;9.26;57.84
75855;BME280;64502;59.976;30.316;2023-06-10T03:09:03;102603.75;;;9.27;57.92
75855;BME280;64502;59.976;30.316;2023-06-10T03:11:29;102596.69;;;9.29;58.03
75855;BME280;64502;59.976;30.316;2023-06-10T03:13:56;102608.94;;;9.32;58.24
75855;BME280;64502;59.976;30.316;2023-06-10T03:16:22;102608.03;;;9.33;58.37
75855;BME280;64502;59.976;30.316;2023-06-10T03:18:48;102606.22;;;9.35;58.18
75855;BME280;64502;59.976;30.316;2023-06-10T03:21:14;102604.41;;;9.39;57.41
75855;BME280;64502;59.976;30.316;2023-06-10T03:23:39;102604.28;;;9.43;58.01
75855;BME280;64502;59.976;30.316;2023-06-10T03:26:05;102603.25;;;9.49;58.02
75855;BME280;64502;59.976;30.316;2023-06-10T03:28:31;102611.91;;;9.55;57.45
75855;BME280;64502;59.976;30.316;2023-06-10T03:30:56;102609.16;;;9.60;58.30
75855;BME280;64502;59.976;30.316;2023-06-10T03:33:22;102608.19;;;9.64;57.49
75855;BME280;64502;59.976;30.316;2023-06-10T03:35:47;102605.41;;;9.70;57.67
75855;BME280;64502;59.976;30.316;2023-06-10T03:38:13;102611.34;;;9.78;57.31
75855;BME280;64502;59.976;30.316;2023-06-10T03:40:39;102615.53;;;9.87;57.04
75855;BME280;64502;59.976;30.316;2023-06-10T03:43:04;102616.25;;;9.94;56.59
75855;BME280;64502;59.976;30.316;2023-06-10T03:45:30;102617.81;;;10.01;57.08
75855;BME280;64502;59.976;30.316;2023-06-10T03:47:56;102615.91;;;10.08;57.64
75855;BME280;64502;59.976;30.316;2023-06-10T03:50:22;102624.44;;;10.17;57.42
75855;BME280;64502;59.976;30.316;2023-06-10T03:52:48;102628.63;;;10.26;56.73
75855;BME280;64502;59.976;30.316;2023-06-10T03:55:14;102620.50;;;10.34;56.00
75855;BME280;64502;59.976;30.316;2023-06-10T03:57:39;102618.53;;;10.42;56.62
75855;BME280;64502;59.976;30.316;2023-06-10T04:00:06;102623.59;;;10.51;56.13
75855;BME280;64502;59.976;30.316;2023-06-10T04:02:36;102625.19;;;10.57;54.81
75855;BME280;64502;59.976;30.316;2023-06-10T04:05:02;102625.00;;;10.63;55.38
75855;BME280;64502;59.976;30.316;2023-06-10T04:07:28;102632.72;;;10.71;54.60
75855;BME280;64502;59.976;30.316;2023-06-10T04:09:53;102630.81;;;10.76;54.52
75855;BME280;64502;59.976;30.316;2023-06-10T04:12:19;102629.72;;;10.83;54.42
75855;BME280;64502;59.976;30.316;2023-06-10T04:14:44;102628.66;;;10.90;54.09
75855;BME280;64502;59.976;30.316;2023-06-10T04:17:10;102631.06;;;10.98;54.53
75855;BME280;64502;59.976;30.316;2023-06-10T04:19:36;102631.81;;;11.03;54.75
75855;BME280;64502;59.976;30.316;2023-06-10T04:22:01;102643.03;;;11.09;53.29
75855;BME280;64502;59.976;30.316;2023-06-10T04:24:30;102642.84;;;11.16;54.03
75855;BME280;64502;59.976;30.316;2023-06-10T04:26:56;102641.97;;;11.17;53.91
75855;BME280;64502;59.976;30.316;2023-06-10T04:29:21;102643.59;;;11.21;53.36
75855;BME280;64502;59.976;30.316;2023-06-10T04:31:47;102646.13;;;11.24;53.72
75855;BME280;64502;59.976;30.316;2023-06-10T04:34:12;102646.84;;;11.30;53.25
75855;BME280;64502;59.976;30.316;2023-06-10T04:36:38;102643.22;;;11.33;54.06
75855;BME280;64502;59.976;30.316;2023-06-10T04:39:04;102649.28;;;11.37;52.67
75855;BME280;64502;59.976;30.316;2023-06-10T04:41:31;102651.78;;;11.41;53.00
75855;BME280;64502;59.976;30.316;2023-06-10T04:43:56;102643.75;;;11.44;53.90
75855;BME280;64502;59.976;30.316;2023-06-10T04:46:23;102648.81;;;11.52;53.29
75855;BME280;64502;59.976;30.316;2023-06-10T04:48:49;102649.47;;;11.59;52.05
75855;BME280;64502;59.976;30.316;2023-06-10T04:51:14;102644.78;;;11.68;52.01
75855;BME280;64502;59.976;30.316;2023-06-10T04:53:40;102655.97;;;11.76;51.62
75855;BME280;64502;59.976;30.316;2023-06-10T04:56:06;102656.56;;;11.86;52.09
75855;BME280;64502;59.976;30.316;2023-06-10T04:58:33;102651.25;;;11.88;51.52
75855;BME280;64502;59.976;30.316;2023-06-10T05:00:58;102647.66;;;11.89;51.01
75855;BME280;64502;59.976;30.316;2023-06-10T05:03:25;102646.78;;;11.90;50.68
75855;BME280;64502;59.976;30.316;2023-06-10T05:05:50;102658.94;;;11.95;50.70
75855;BME280;64502;59.976;30.316;2023-06-10T05:08:16;102671.13;;;11.99;50.66
75855;BME280;64502;59.976;30.316;2023-06-10T05:10:41;102663.91;;;12.05;49.21
75855;BME280;64502;59.976;30.316;2023-06-10T05:13:07;102665.56;;;12.09;48.62
75855;BME280;64502;59.976;30.316;2023-06-10T05:15:32;102671.44;;;12.17;48.45
75855;BME280;64502;59.976;30.316;2023-06-10T05:17:58;102662.38;;;12.24;47.81
75855;BME280;64502;59.976;30.316;2023-06-10T05:20:24;102674.50;;;12.31;47.90
75855;BME280;64502;59.976;30.316;2023-06-10T05:22:50;102667.38;;;12.33;48.24
75855;BME280;64502;59.976;30.316;2023-06-10T05:25:16;102674.28;;;12.37;46.80
75855;BME280;64502;59.976;30.316;2023-06-10T05:27:42;102672.34;;;12.42;47.10
75855;BME280;64502;59.976;30.316;2023-06-10T05:30:09;102684.53;;;12.47;46.19
75855;BME280;64502;59.976;30.316;2023-06-10T05:32:35;102683.56;;;12.49;46.78
75855;BME280;64502;59.976;30.316;2023-06-10T05:35:01;102688.66;;;12.55;46.65
75855;BME280;64502;59.976;30.316;2023-06-10T05:37:26;102695.41;;;12.64;46.13
75855;BME280;64502;59.976;30.316;2023-06-10T05:39:52;102679.25;;;12.72;45.70
75855;BME280;64502;59.976;30.316;2023-06-10T05:42:18;102688.78;;;12.77;44.85
75855;BME280;64502;59.976;30.316;2023-06-10T05:44:43;102692.97;;;12.83;44.90
75855;BME280;64502;59.976;30.316;2023-06-10T05:47:09;102685.66;;;12.89;44.44
75855;BME280;64502;59.976;30.316;2023-06-10T05:49:34;102697.66;;;13.00;43.78
75855;BME280;64502;59.976;30.316;2023-06-10T05:52:00;102690.28;;;13.08;43.94
75855;BME280;64502;59.976;30.316;2023-06-10T05:54:26;102697.03;;;13.17;43.99
75855;BME280;64502;59.976;30.316;2023-06-10T05:56:52;102702.03;;;13.26;42.84
75855;BME280;64502;59.976;30.316;2023-06-10T05:59:17;102701.59;;;13.37;43.31
75855;BME280;64502;59.976;30.316;2023-06-10T06:01:43;102702.09;;;13.48;42.71
75855;BME280;64502;59.976;30.316;2023-06-10T06:04:09;102702.56;;;13.58;42.97
75855;BME280;64502;59.976;30.316;2023-06-10T06:06:35;102712.84;;;13.67;42.94
75855;BME280;64502;59.976;30.316;2023-06-10T06:09:01;102709.00;;;13.74;42.12
75855;BME280;64502;59.976;30.316;2023-06-10T06:11:26;102696.25;;;13.84;42.60
75855;BME280;64502;59.976;30.316;2023-06-10T06:13:52;102700.19;;;13.95;41.54
75855;BME280;64502;59.976;30.316;2023-06-10T06:16:17;102690.72;;;14.10;41.16
75855;BME280;64502;59.976;30.316;2023-06-10T06:18:43;102697.94;;;14.29;41.62
75855;BME280;64502;59.976;30.316;2023-06-10T06:21:09;102697.34;;;14.42;41.55
75855;BME280;64502;59.976;30.316;2023-06-10T06:23:34;102700.25;;;14.58;39.56
75855;BME280;64502;59.976;30.316;2023-06-10T06:26:00;102696.84;;;14.75;40.20
75855;BME280;64502;59.976;30.316;2023-06-10T06:28:27;102697.63;;;14.98;39.58
75855;BME280;64502;59.976;30.316;2023-06-10T06:30:55;102704.59;;;15.19;38.40
75855;BME280;64502;59.976;30.316;2023-06-10T06:33:21;102694.97;;;15.36;38.66
75855;BME280;64502;59.976;30.316;2023-06-10T06:35:47;102701.81;;;15.41;37.46
75855;BME280;64502;59.976;30.316;2023-06-10T06:38:12;102708.22;;;15.56;37.18
75855;BME280;64502;59.976;30.316;2023-06-10T06:40:38;102713.88;;;15.69;37.23
75855;BME280;64502;59.976;30.316;2023-06-10T06:43:03;102700.31;;;15.73;36.43
75855;BME280;64502;59.976;30.316;2023-06-10T06:45:30;102706.59;;;15.72;36.38
75855;BME280;64502;59.976;30.316;2023-06-10T06:47:55;102709.91;;;15.78;35.92
75855;BME280;64502;59.976;30.316;2023-06-10T06:50:21;102710.25;;;15.89;36.04
75855;BME280;64502;59.976;30.316;2023-06-10T06:52:47;102702.44;;;16.03;35.71
75855;BME280;64502;59.976;30.316;2023-06-10T06:55:12;102709.72;;;16.00;35.74
75855;BME280;64502;59.976;30.316;2023-06-10T06:57:38;102705.94;;;16.04;35.45
75855;BME280;64502;59.976;30.316;2023-06-10T07:00:04;102717.06;;;16.12;34.86
75855;BME280;64502;59.976;30.316;2023-06-10T07:02:30;102714.69;;;16.25;34.64
75855;BME280;64502;59.976;30.316;2023-06-10T07:04:57;102716.88;;;16.34;34.67
75855;BME280;64502;59.976;30.316;2023-06-10T07:07:24;102721.72;;;16.26;34.43
75855;BME280;64502;59.976;30.316;2023-06-10T07:09:49;102726.13;;;16.27;34.42
75855;BME280;64502;59.976;30.316;2023-06-10T07:12:15;102729.44;;;16.32;35.35
75855;BME280;64502;59.976;30.316;2023-06-10T07:14:41;102724.16;;;16.48;34.77
75855;BME280;64502;59.976;30.316;2023-06-10T07:17:06;102725.03;;;16.65;33.99
75855;BME280;64502;59.976;30.316;2023-06-10T07:19:32;102732.63;;;16.73;34.34
75855;BME280;64502;59.976;30.316;2023-06-10T07:21:57;102732.88;;;16.69;33.78
75855;BME280;64502;59.976;30.316;2023-06-10T07:24:23;102731.00;;;16.71;33.47
75855;BME280;64502;59.976;30.316;2023-06-10T07:26:48;102747.22;;;16.66;33.08
75855;BME280;64502;59.976;30.316;2023-06-10T07:29:14;102737.72;;;16.60;32.86
75855;BME280;64502;59.976;30.316;2023-06-10T07:31:41;102729.19;;;16.54;32.93
75855;BME280;64502;59.976;30.316;2023-06-10T07:34:06;102742.75;;;16.49;33.65
75855;BME280;64502;59.976;30.316;2023-06-10T07:36:32;102740.63;;;16.38;33.79
75855;BME280;64502;59.976;30.316;2023-06-10T07:38:57;102741.72;;;16.34;33.40
75855;BME280;64502;59.976;30.316;2023-06-10T07:41:23;102743.75;;;16.29;32.99
75855;BME280;64502;59.976;30.316;2023-06-10T07:43:51;102745.16;;;16.36;34.21
75855;BME280;64502;59.976;30.316;2023-06-10T07:46:20;102745.56;;;16.63;33.66
75855;BME280;64502;59.976;30.316;2023-06-10T07:48:47;102741.72;;;17.04;32.93
75855;BME280;64502;59.976;30.316;2023-06-10T07:51:12;102744.28;;;17.39;32.31
75855;BME280;64502;59.976;30.316;2023-06-10T07:53:38;102741.00;;;17.83;31.40
75855;BME280;64502;59.976;30.316;2023-06-10T07:56:03;102746.19;;;18.16;30.46
75855;BME280;64502;59.976;30.316;2023-06-10T07:58:29;102750.22;;;18.39;30.37
75855;BME280;64502;59.976;30.316;2023-06-10T08:00:54;102752.16;;;18.51;31.00
75855;BME280;64502;59.976;30.316;2023-06-10T08:03:20;102744.00;;;18.38;31.39
75855;BME280;64502;59.976;30.316;2023-06-10T08:05:45;102754.22;;;18.16;31.89
75855;BME280;64502;59.976;30.316;2023-06-10T08:08:11;102757.94;;;18.13;32.43
75855;BME280;64502;59.976;30.316;2023-06-10T08:10:36;102750.34;;;18.22;31.24
75855;BME280;64502;59.976;30.316;2023-06-10T08:13:02;102753.03;;;18.36;31.60
75855;BME280;64502;59.976;30.316;2023-06-10T08:15:27;102750.25;;;18.53;31.73
75855;BME280;64502;59.976;30.316;2023-06-10T08:17:53;102758.75;;;18.60;31.91
75855;BME280;64502;59.976;30.316;2023-06-10T08:20:18;102752.59;;;18.74;31.86
75855;BME280;64502;59.976;30.316;2023-06-10T08:22:44;102758.41;;;18.66;31.81
75855;BME280;64502;59.976;30.316;2023-06-10T08:25:09;102760.94;;;18.53;31.84
75855;BME280;64502;59.976;30.316;2023-06-10T08:27:35;102771.72;;;18.22;31.91
75855;BME280;64502;59.976;30.316;2023-06-10T08:30:01;102770.78;;;17.91;31.95
75855;BME280;64502;59.976;30.316;2023-06-10T08:32:26;102778.69;;;17.61;32.30
75855;BME280;64502;59.976;30.316;2023-06-10T08:34:52;102777.00;;;17.42;32.43
75855;BME280;64502;59.976;30.316;2023-06-10T08:37:17;102783.94;;;17.29;32.52
75855;BME280;64502;59.976;30.316;2023-06-10T08:39:43;102789.22;;;17.13;32.84
75855;BME280;64502;59.976;30.316;2023-06-10T08:42:28;102790.19;;;17.12;33.30
75855;BME280;64502;59.976;30.316;2023-06-10T08:44:55;102800.25;;;16.90;32.70
75855;BME280;64502;59.976;30.316;2023-06-10T08:47:23;102806.03;;;16.80;33.16
75855;BME280;64502;59.976;30.316;2023-06-10T08:49:49;102796.69;;;16.72;32.20
75855;BME280;64502;59.976;30.316;2023-06-10T08:52:16;102796.84;;;16.69;33.20
75855;BME280;64502;59.976;30.316;2023-06-10T08:54:57;102803.56;;;16.58;34.20
75855;BME280;64502;59.976;30.316;2023-06-10T08:57:25;102806.91;;;16.45;33.87
75855;BME280;64502;59.976;30.316;2023-06-10T08:59:53;102803.97;;;16.51;32.93
75855;BME280;64502;59.976;30.316;2023-06-10T09:02:20;102800.91;;;16.58;33.33
75855;BME280;64502;59.976;30.316;2023-06-10T09:04:47;102793.31;;;16.68;33.31
75855;BME280;64502;59.976;30.316;2023-06-10T09:07:15;102791.31;;;17.08;32.53
75855;BME280;64502;59.976;30.316;2023-06-10T09:09:42;102785.66;;;17.63;31.62
75855;BME280;64502;59.976;30.316;2023-06-10T09:12:08;102779.53;;;18.25;30.60
75855;BME280;64502;59.976;30.316;2023-06-10T09:14:34;102776.91;;;18.85;29.97
75855;BME280;64502;59.976;30.316;2023-06-10T09:17:00;102777.22;;;19.52;28.61
75855;BME280;64502;59.976;30.316;2023-06-10T09:19:26;102771.69;;;20.11;27.49
75855;BME280;64502;59.976;30.316;2023-06-10T09:21:53;102779.19;;;20.86;26.61
75855;BME280;64502;59.976;30.316;2023-06-10T09:24:22;102777.75;;;21.69;25.84
75855;BME280;64502;59.976;30.316;2023-06-10T09:26:47;102776.09;;;22.41;24.60
75855;BME280;64502;59.976;30.316;2023-06-10T09:29:13;102775.31;;;22.98;23.45
75855;BME280;64502;59.976;30.316;2023-06-10T09:31:39;102775.47;;;23.30;23.61
75855;BME280;64502;59.976;30.316;2023-06-10T09:34:15;102776.31;;;23.31;24.27
75855;BME280;64502;59.976;30.316;2023-06-10T09:36:42;102780.88;;;22.83;23.15
75855;BME280;64502;59.976;30.316;2023-06-10T09:39:18;102786.81;;;22.29;25.27
75855;BME280;64502;59.976;30.316;2023-06-10T09:41:45;102785.31;;;21.52;24.07
75855;BME280;64502;59.976;30.316;2023-06-10T09:44:15;102786.91;;;20.77;25.45
75855;BME280;64502;59.976;30.316;2023-06-10T09:46:42;102788.75;;;20.50;26.03
75855;BME280;64502;59.976;30.316;2023-06-10T09:49:08;102792.69;;;20.84;25.76
75855;BME280;64502;59.976;30.316;2023-06-10T09:51:33;102779.84;;;21.53;25.00
75855;BME280;64502;59.976;30.316;2023-06-10T09:54:02;102771.63;;;22.28;23.91
75855;BME280;64502;59.976;30.316;2023-06-10T09:56:37;102771.94;;;22.83;24.14
75855;BME280;64502;59.976;30.316;2023-06-10T09:59:05;102778.66;;;22.77;22.85
75855;BME280;64502;59.976;30.316;2023-06-10T10:01:31;102778.69;;;22.53;22.60
75855;BME280;64502;59.976;30.316;2023-06-10T10:03:59;102778.16;;;22.37;22.83
75855;BME280;64502;59.976;30.316;2023-06-10T10:06:25;102772.22;;;22.56;22.79
75855;BME280;64502;59.976;30.316;2023-06-10T10:08:51;102776.38;;;22.95;21.95
75855;BME280;64502;59.976;30.316;2023-06-10T10:11:18;102764.53;;;23.54;21.16
75855;BME280;64502;59.976;30.316;2023-06-10T10:13:49;102763.84;;;24.07;21.82
75855;BME280;64502;59.976;30.316;2023-06-10T10:16:40;102769.09;;;24.41;23.32
75855;BME280;64502;59.976;30.316;2023-06-10T10:19:15;102765.53;;;24.72;20.80
75855;BME280;64502;59.976;30.316;2023-06-10T10:21:50;102765.66;;;25.01;20.04
75855;BME280;64502;59.976;30.316;2023-06-10T10:24:20;102760.41;;;25.00;20.35
75855;BME280;64502;59.976;30.316;2023-06-10T10:26:47;102774.06;;;25.19;19.82
75855;BME280;64502;59.976;30.316;2023-06-10T10:29:22;102778.06;;;25.25;19.75
75855;BME280;64502;59.976;30.316;2023-06-10T10:31:51;102769.22;;;25.23;19.34
75855;BME280;64502;59.976;30.316;2023-06-10T10:34:36;102769.06;;;25.45;20.45
75855;BME280;64502;59.976;30.316;2023-06-10T10:37:02;102770.44;;;25.40;18.84
75855;BME280;64502;59.976;30.316;2023-06-10T10:39:28;102765.75;;;25.42;18.94
75855;BME280;64502;59.976;30.316;2023-06-10T10:41:55;102763.31;;;25.89;18.48
75855;BME280;64502;59.976;30.316;2023-06-10T10:44:22;102763.63;;;26.34;18.53
75855;BME280;64502;59.976;30.316;2023-06-10T10:46:50;102763.91;;;26.70;17.36
75855;BME280;64502;59.976;30.316;2023-06-10T10:49:17;102769.44;;;26.78;17.41
75855;BME280;64502;59.976;30.316;2023-06-10T10:52:00;102767.09;;;27.03;18.94
75855;BME280;64502;59.976;30.316;2023-06-10T10:54:36;102769.97;;;27.39;18.60
75855;BME280;64502;59.976;30.316;2023-06-10T10:59:54;102754.28;;;28.42;18.41
75855;BME280;64502;59.976;30.316;2023-06-10T11:05:06;102758.56;;;28.62;16.15
75855;BME280;64502;59.976;30.316;2023-06-10T11:07:32;102759.28;;;28.72;15.78
75855;BME280;64502;59.976;30.316;2023-06-10T11:10:05;102759.34;;;29.41;14.65
75855;BME280;64502;59.976;30.316;2023-06-10T11:15:06;102750.03;;;30.19;14.33
75855;BME280;64502;59.976;30.316;2023-06-10T11:17:31;102744.25;;;30.38;14.24
75855;BME280;64502;59.976;30.316;2023-06-10T11:19:58;102749.19;;;30.59;14.13
75855;BME280;64502;59.976;30.316;2023-06-10T11:22:24;102742.19;;;30.81;13.71
75855;BME280;64502;59.976;30.316;2023-06-10T11:24:50;102746.81;;;31.20;13.69
75855;BME280;64502;59.976;30.316;2023-06-10T11:27:21;102751.50;;;31.43;14.15
75855;BME280;64502;59.976;30.316;2023-06-10T11:32:33;102748.53;;;31.13;13.84
75855;BME280;64502;59.976;30.316;2023-06-10T11:34:59;102750.69;;;30.86;13.47
75855;BME280;64502;59.976;30.316;2023-06-10T11:37:25;102748.66;;;31.28;12.88
75855;BME280;64502;59.976;30.316;2023-06-10T11:39:55;102745.78;;;31.92;13.64
75855;BME280;64502;59.976;30.316;2023-06-10T11:42:22;102761.09;;;32.47;12.29
75855;BME280;64502;59.976;30.316;2023-06-10T11:44:52;102758.03;;;32.94;12.37
75855;BME280;64502;59.976;30.316;2023-06-10T11:47:18;102749.19;;;33.07;12.20
75855;BME280;64502;59.976;30.316;2023-06-10T11:49:44;102753.03;;;33.28;11.97
75855;BME280;64502;59.976;30.316;2023-06-10T11:52:10;102749.41;;;33.57;11.73
75855;BME280;64502;59.976;30.316;2023-06-10T11:54:37;102748.34;;;33.94;11.42
75855;BME280;64502;59.976;30.316;2023-06-10T11:57:03;102747.91;;;34.62;10.85
75855;BME280;64502;59.976;30.316;2023-06-10T11:59:31;102757.63;;;34.99;11.13
75855;BME280;64502;59.976;30.316;2023-06-10T12:01:58;102744.91;;;35.26;10.67
75855;BME280;64502;59.976;30.316;2023-06-10T12:04:23;102754.59;;;35.22;10.63
75855;BME280;64502;59.976;30.316;2023-06-10T12:06:52;102744.47;;;35.84;10.66
75855;BME280;64502;59.976;30.316;2023-06-10T12:09:28;102742.19;;;36.28;11.76
75855;BME280;64502;59.976;30.316;2023-06-10T12:12:00;102741.56;;;36.19;10.14
75855;BME280;64502;59.976;30.316;2023-06-10T12:14:55;102747.03;;;36.72;11.71
75855;BME280;64502;59.976;30.316;2023-06-10T12:19:58;102741.53;;;36.52;9.80
75855;BME280;64502;59.976;30.316;2023-06-10T12:22:25;102742.41;;;36.33;9.70
75855;BME280;64502;59.976;30.316;2023-06-10T12:25:04;102745.38;;;36.51;10.68
75855;BME280;64502;59.976;30.316;2023-06-10T12:27:30;102746.44;;;36.17;10.01
75855;BME280;64502;59.976;30.316;2023-06-10T12:29:57;102748.22;;;36.96;9.57
75855;BME280;64502;59.976;30.316;2023-06-10T12:32:44;102740.16;;;37.98;10.67
75855;BME280;64502;59.976;30.316;2023-06-10T12:35:17;102736.31;;;37.92;9.88
75855;BME280;64502;59.976;30.316;2023-06-10T12:37:57;102732.03;;;38.53;10.17
75855;BME280;64502;59.976;30.316;2023-06-10T12:40:30;102726.69;;;38.58;8.93
75855;BME280;64502;59.976;30.316;2023-06-10T12:42:57;102742.34;;;38.39;8.62
75855;BME280;64502;59.976;30.316;2023-06-10T12:45:35;102738.13;;;38.37;9.30
75855;BME280;64502;59.976;30.316;2023-06-10T12:50:41;102734.34;;;38.56;8.82
75855;BME280;64502;59.976;30.316;2023-06-10T12:53:08;102728.50;;;37.89;8.56
75855;BME280;64502;59.976;30.316;2023-06-10T12:55:34;102722.47;;;38.06;8.42
75855;BME280;64502;59.976;30.316;2023-06-10T12:58:00;102739.41;;;37.39;8.57
75855;BME280;64502;59.976;30.316;2023-06-10T13:00:26;102737.47;;;37.46;9.00
75855;BME280;64502;59.976;30.316;2023-06-10T13:02:55;102730.81;;;38.68;11.27